首页
METAR-TAF:

METAR-TAF

机场 :

Kimmirut, 努那武特, 加拿大

纬度: 62-51N, 经度: 069-53W, 海拔: 53米

当前天气观测

该预报发布于9小时和10分钟前的21:00 UTC
风速3节,风向北转西北
温度 -17°C
湿度 77%
气压 1013 hPa
能見度: 24.1公里
散云层高于2400英尺
小雪

METAR: CYLC 112100Z 33003KT 15SM -SN SCT024 M17/M20 A2990 RMK SC4 -16.0/-24.3/0.1/1 TRACE LOOSE LASTSTFD OBS/NEXT 121300Z SLP135

时间: 01:10 (06:10 UTC)


TAF: 丢失

超过4000个机场的气象观测和天气预报(METAR&TAF报告)。

可查询的气象台以黄色和红色小点在地图上表示。

将鼠标移到小点上方,可查看气象台名称。

然后点击查看天气观测和预报。

如需切换地图:点击带黑十字的绿色按钮放大地图;点击带横线的绿色按钮缩小地图;或者点击绿色箭头查看邻近地区的地图。


METAR-TAF: